Time;durP1;ratioP1;P1;durP2;ratioP2;P2;SDS_P1;SDS_P2;PMS_P1;PMS_P2;Temp;Humidity;BMP_temperature;BMP_pressure;BME280_temperature;BME280_humidity;BME280_pressure;Samples;Min_cycle;Max_cycle;Signal;HPM_P1;HPM_P2
2023/08/27 00:00:05;;;;;;;4.93;3.00;;;16.20;99.90;;;;;;5052955;28;20036;-41
2023/08/27 00:02:31;;;;;;;7.82;3.70;;;16.30;99.90;;;;;;5053810;28;20017;-38
2023/08/27 00:04:57;;;;;;;6.70;2.97;;;16.30;99.90;;;;;;5052281;28;20119;-41
2023/08/27 00:07:23;;;;;;;4.60;4.05;;;16.30;99.90;;;;;;5053152;28;20029;-43
2023/08/27 00:09:49;;;;;;;5.18;3.70;;;16.30;99.90;;;;;;5053234;28;20025;-49
2023/08/27 00:12:15;;;;;;;5.35;3.30;;;16.30;99.90;;;;;;5035922;28;20397;-41
2023/08/27 00:14:40;;;;;;;4.22;3.10;;;16.40;99.90;;;;;;5053008;28;20032;-38
2023/08/27 00:17:06;;;;;;;5.05;3.25;;;16.40;99.90;;;;;;5049970;28;20025;-41
2023/08/27 00:19:32;;;;;;;3.47;2.92;;;16.40;99.90;;;;;;5048987;28;20428;-41
2023/08/27 00:21:58;;;;;;;6.75;3.20;;;16.40;99.90;;;;;;5052665;28;20243;-39
2023/08/27 00:24:24;;;;;;;3.40;3.10;;;16.40;99.90;;;;;;5052383;28;20087;-50
2023/08/27 00:26:49;;;;;;;3.90;3.17;;;16.40;99.90;;;;;;5053357;28;20020;-52
2023/08/27 00:29:19;;;;;;;3.10;2.50;;;16.50;99.90;;;;;;5052148;28;20499;-50
2023/08/27 00:31:45;;;;;;;5.18;3.30;;;16.50;99.90;;;;;;5051332;28;20482;-51
2023/08/27 00:34:11;;;;;;;4.63;2.70;;;16.50;99.90;;;;;;5051987;28;20021;-51
2023/08/27 00:36:36;;;;;;;4.75;3.35;;;16.50;99.90;;;;;;5041286;28;20374;-50
2023/08/27 00:39:02;;;;;;;3.47;3.10;;;16.50;99.90;;;;;;5051124;28;20498;-40
2023/08/27 00:41:27;;;;;;;6.75;2.80;;;16.50;99.90;;;;;;5053097;28;20107;-39
2023/08/27 00:43:53;;;;;;;5.05;3.03;;;16.50;99.90;;;;;;5052977;28;20041;-40
2023/08/27 00:46:19;;;;;;;3.97;3.40;;;16.50;99.90;;;;;;5052864;28;20029;-51
2023/08/27 00:48:45;;;;;;;4.82;3.10;;;16.50;99.90;;;;;;5051464;28;20025;-51
2023/08/27 00:51:11;;;;;;;3.10;2.80;;;16.50;99.90;;;;;;5053009;28;20021;-50
2023/08/27 00:53:38;;;;;;;3.80;2.85;;;16.50;99.90;;;;;;5051824;28;20028;-51
2023/08/27 00:56:05;;;;;;;6.97;3.53;;;16.50;99.90;;;;;;5052297;28;20036;-48
2023/08/27 00:58:31;;;;;;;4.72;2.85;;;16.40;99.90;;;;;;5052931;28;20497;-52
2023/08/27 01:00:57;;;;;;;3.45;2.88;;;16.40;99.90;;;;;;5051290;28;20102;-52
2023/08/27 01:03:23;;;;;;;3.15;2.80;;;16.40;99.90;;;;;;5052336;28;20028;-49
2023/08/27 01:05:48;;;;;;;3.10;2.70;;;16.40;99.90;;;;;;5050478;28;20417;-49
2023/08/27 01:08:40;;;;;;;4.25;2.83;;;16.30;99.90;;;;;;5051528;28;20043;-53
2023/08/27 01:11:12;;;;;;;5.03;3.03;;;16.30;99.90;;;;;;5052111;28;20032;-50
2023/08/27 01:13:50;;;;;;;3.20;2.90;;;16.30;99.90;;;;;;5051772;28;20528;-50
2023/08/27 01:16:19;;;;;;;3.33;2.38;;;16.30;99.90;;;;;;5052701;28;20029;-52
2023/08/27 01:18:46;;;;;;;4.93;2.90;;;16.30;99.90;;;;;;5052690;28;20078;-50
2023/08/27 01:21:22;;;;;;;3.88;2.60;;;16.30;99.90;;;;;;5050148;28;20440;-49
2023/08/27 01:23:47;;;;;;;3.90;3.10;;;16.30;99.90;;;;;;5050629;28;20032;-52
2023/08/27 01:26:39;;;;;;;3.25;2.95;;;16.30;99.90;;;;;;5034653;28;20478;-50
2023/08/27 01:29:32;;;;;;;7.32;3.08;;;16.30;99.90;;;;;;5025384;28;20095;-50
2023/08/27 01:32:21;;;;;;;2.88;2.63;;;16.30;99.90;;;;;;5051527;28;20029;-51
2023/08/27 01:34:48;;;;;;;6.93;2.72;;;16.30;99.90;;;;;;5050331;28;20025;-51
2023/08/27 01:37:14;;;;;;;3.03;2.33;;;16.20;99.90;;;;;;5033093;28;20033;-47
2023/08/27 01:39:43;;;;;;;3.10;2.80;;;16.20;99.90;;;;;;5050391;28;20029;-46
2023/08/27 01:42:11;;;;;;;3.40;2.78;;;16.20;99.90;;;;;;5050047;28;20021;-53
2023/08/27 01:44:36;;;;;;;2.63;2.30;;;16.20;99.90;;;;;;5052213;28;20497;-52
2023/08/27 01:47:03;;;;;;;3.20;2.90;;;16.30;99.90;;;;;;5052292;28;20064;-53
2023/08/27 01:49:29;;;;;;;3.17;2.85;;;16.30;99.90;;;;;;5051377;28;20079;-55
2023/08/27 01:51:54;;;;;;;2.53;2.33;;;16.20;99.90;;;;;;5052664;28;20021;-52
2023/08/27 01:54:20;;;;;;;2.92;2.70;;;16.20;99.90;;;;;;5050485;28;20036;-50
2023/08/27 01:56:46;;;;;;;2.95;2.15;;;16.20;99.90;;;;;;5052273;28;20529;-51
2023/08/27 01:59:11;;;;;;;2.90;2.45;;;16.20;99.90;;;;;;5052630;28;20096;-51
2023/08/27 02:01:37;;;;;;;2.72;2.50;;;16.20;99.90;;;;;;5054913;28;20040;-52
2023/08/27 02:04:03;;;;;;;3.28;2.67;;;16.10;99.90;;;;;;5055330;28;20025;-50
2023/08/27 02:06:29;;;;;;;4.50;2.60;;;16.00;99.90;;;;;;5038091;28;20027;-52
2023/08/27 02:08:55;;;;;;;2.80;2.33;;;16.00;99.90;;;;;;5055360;28;20036;-51
2023/08/27 02:11:21;;;;;;;3.38;2.92;;;16.00;99.90;;;;;;5054420;28;20029;-46
2023/08/27 02:13:47;;;;;;;2.15;1.95;;;15.90;99.90;;;;;;5055562;28;20021;-50
2023/08/27 02:16:12;;;;;;;3.60;2.72;;;16.00;99.90;;;;;;5055897;28;20032;-48
2023/08/27 02:18:38;;;;;;;4.57;2.58;;;16.00;99.90;;;;;;5054469;28;20027;-54
2023/08/27 02:21:03;;;;;;;4.30;2.42;;;16.00;99.90;;;;;;5054890;28;20032;-51
2023/08/27 02:23:29;;;;;;;3.03;2.30;;;16.00;99.90;;;;;;5053766;28;20024;-51
2023/08/27 02:25:55;;;;;;;4.97;2.95;;;16.00;99.90;;;;;;5037100;28;20044;-40
2023/08/27 02:28:20;;;;;;;3.53;2.80;;;16.00;99.90;;;;;;5054900;28;20028;-39
2023/08/27 02:30:59;;;;;;;3.40;2.90;;;16.00;99.90;;;;;;5055569;28;20068;-39
2023/08/27 02:33:24;;;;;;;3.15;2.40;;;16.00;99.90;;;;;;5055764;28;20563;-46
2023/08/27 02:35:50;;;;;;;3.70;2.88;;;16.10;99.90;;;;;;5055815;28;20021;-42
2023/08/27 02:38:17;;;;;;;4.20;3.20;;;16.00;99.90;;;;;;5054443;28;20056;-39
2023/08/27 02:40:43;;;;;;;4.07;3.20;;;16.10;99.90;;;;;;5036303;28;20021;-40
2023/08/27 02:43:09;;;;;;;4.50;2.92;;;16.10;99.90;;;;;;5055242;28;20404;-40
2023/08/27 02:45:35;;;;;;;5.32;3.17;;;16.10;99.90;;;;;;5055451;28;20088;-38
2023/08/27 02:48:00;;;;;;;4.85;2.40;;;16.10;99.90;;;;;;5053286;28;20086;-40
2023/08/27 02:50:26;;;;;;;4.22;2.78;;;16.10;99.90;;;;;;5055276;28;20454;-41
2023/08/27 02:52:52;;;;;;;5.30;2.97;;;16.10;99.90;;;;;;5054438;28;20028;-45
2023/08/27 02:55:17;;;;;;;2.83;2.45;;;16.10;99.90;;;;;;5053125;28;20021;-50
2023/08/27 02:57:43;;;;;;;4.10;3.08;;;16.10;99.90;;;;;;5054170;28;20033;-56
2023/08/27 03:00:09;;;;;;;5.75;2.90;;;16.10;99.90;;;;;;5054198;28;20035;-53
2023/08/27 03:02:35;;;;;;;3.63;2.70;;;16.10;99.90;;;;;;5054835;28;20017;-49
2023/08/27 03:05:04;;;;;;;6.07;3.13;;;16.10;99.90;;;;;;5054968;28;20047;-43
2023/08/27 03:07:30;;;;;;;3.00;2.72;;;16.10;99.90;;;;;;5053866;28;20482;-52
2023/08/27 03:09:56;;;;;;;3.22;2.92;;;16.00;99.90;;;;;;5054350;28;20021;-52
2023/08/27 03:12:21;;;;;;;3.58;3.15;;;16.00;99.90;;;;;;5052584;28;20025;-49
2023/08/27 03:14:47;;;;;;;5.03;3.03;;;16.00;99.90;;;;;;5054848;28;20358;-48
2023/08/27 03:17:13;;;;;;;3.90;3.30;;;16.00;99.90;;;;;;5054256;28;20377;-51
2023/08/27 03:19:39;;;;;;;4.05;3.10;;;16.00;99.90;;;;;;5052047;28;20031;-44
2023/08/27 03:22:05;;;;;;;5.65;3.50;;;16.00;99.90;;;;;;5052699;28;20028;-38
2023/08/27 03:24:31;;;;;;;3.70;3.13;;;16.00;99.90;;;;;;5054508;28;20482;-39
2023/08/27 03:26:56;;;;;;;5.57;3.58;;;15.90;99.90;;;;;;5052306;28;20377;-40
2023/08/27 03:29:22;;;;;;;6.45;3.90;;;15.90;99.90;;;;;;5054526;28;20036;-37
2023/08/27 03:31:48;;;;;;;4.72;3.40;;;15.90;99.90;;;;;;5054677;28;20600;-38
2023/08/27 03:34:14;;;;;;;4.15;3.45;;;15.90;99.90;;;;;;5053501;28;20066;-43
2023/08/27 03:36:40;;;;;;;5.75;4.38;;;15.80;99.90;;;;;;5052727;28;20394;-40
2023/08/27 03:39:06;;;;;;;10.50;3.63;;;15.90;99.90;;;;;;5051724;28;20103;-39
2023/08/27 03:41:31;;;;;;;4.88;4.35;;;15.80;99.90;;;;;;5051549;28;20115;-44
2023/08/27 03:43:57;;;;;;;5.18;4.18;;;15.80;99.90;;;;;;5053505;28;20043;-41
2023/08/27 03:46:23;;;;;;;5.63;4.10;;;15.80;99.90;;;;;;5052035;28;20040;-42
2023/08/27 03:48:49;;;;;;;6.05;3.88;;;15.80;99.90;;;;;;5047513;28;20100;-41
2023/08/27 03:51:14;;;;;;;4.97;3.25;;;15.80;99.90;;;;;;5030689;28;20017;-49
2023/08/27 03:53:40;;;;;;;4.15;3.40;;;15.80;99.90;;;;;;5034294;28;20549;-50
2023/08/27 03:56:06;;;;;;;6.88;3.67;;;15.80;99.90;;;;;;5050401;28;20046;-49
2023/08/27 03:58:32;;;;;;;11.30;4.10;;;15.90;99.90;;;;;;5034611;28;20057;-51
2023/08/27 04:00:58;;;;;;;5.95;4.00;;;15.80;99.90;;;;;;5050929;28;20063;-43
2023/08/27 04:03:24;;;;;;;7.57;3.67;;;15.80;99.90;;;;;;5035018;28;20052;-51
2023/08/27 04:05:50;;;;;;;4.47;4.00;;;15.90;99.90;;;;;;5053024;28;20049;-53
2023/08/27 04:08:16;;;;;;;8.63;4.55;;;15.80;99.90;;;;;;5050552;28;20505;-50
2023/08/27 04:10:52;;;;;;;4.68;3.95;;;15.90;99.90;;;;;;5051275;28;20035;-51
2023/08/27 04:13:19;;;;;;;3.63;3.22;;;15.90;99.90;;;;;;5047454;28;20383;-50
2023/08/27 04:16:06;;;;;;;6.82;4.55;;;15.90;99.90;;;;;;5053152;28;20047;-51
2023/08/27 04:18:33;;;;;;;6.53;4.18;;;15.90;99.90;;;;;;5046199;28;20018;-51
2023/08/27 04:20:59;;;;;;;6.03;3.65;;;15.90;99.90;;;;;;5052773;28;20377;-52
2023/08/27 04:23:25;;;;;;;10.40;4.30;;;15.90;99.90;;;;;;5052122;28;20029;-51
2023/08/27 04:25:52;;;;;;;5.43;4.10;;;15.90;99.90;;;;;;5050474;28;20025;-51
2023/08/27 04:28:18;;;;;;;8.13;4.18;;;15.90;99.90;;;;;;5050152;28;20014;-51
2023/08/27 04:30:46;;;;;;;5.47;4.00;;;15.90;99.90;;;;;;5053323;28;20056;-49
2023/08/27 04:33:12;;;;;;;5.43;4.10;;;15.90;99.90;;;;;;5053247;28;20032;-51
2023/08/27 04:35:38;;;;;;;5.20;4.15;;;15.90;99.90;;;;;;5053569;28;20037;-50
2023/08/27 04:38:05;;;;;;;12.23;4.22;;;16.00;99.90;;;;;;5052216;28;20030;-50
2023/08/27 04:40:30;;;;;;;4.80;3.95;;;15.90;99.90;;;;;;5049579;28;20106;-53
2023/08/27 04:42:58;;;;;;;4.20;3.70;;;15.90;99.90;;;;;;5051636;28;20065;-48
2023/08/27 04:45:23;;;;;;;5.53;4.45;;;15.90;99.90;;;;;;5052972;28;20398;-49
2023/08/27 04:47:49;;;;;;;5.57;4.07;;;15.90;99.90;;;;;;5050994;28;20041;-50
2023/08/27 04:50:15;;;;;;;5.20;4.18;;;15.90;99.90;;;;;;5052476;28;20017;-52
2023/08/27 04:52:40;;;;;;;8.77;4.53;;;15.90;99.90;;;;;;5051889;28;20035;-51
2023/08/27 04:55:07;;;;;;;6.07;4.40;;;15.90;99.90;;;;;;5052990;28;20508;-51
2023/08/27 04:57:37;;;;;;;7.57;4.30;;;15.90;99.90;;;;;;5050834;28;20040;-51
2023/08/27 05:00:07;;;;;;;8.25;4.30;;;15.80;99.90;;;;;;5053215;28;20025;-51
2023/08/27 05:02:34;;;;;;;11.98;4.47;;;15.90;99.90;;;;;;5052805;28;20036;-51
2023/08/27 05:05:00;;;;;;;5.18;4.35;;;15.90;99.90;;;;;;5051618;28;20120;-53
2023/08/27 05:07:25;;;;;;;6.45;4.63;;;15.90;99.90;;;;;;5051663;28;20112;-50
2023/08/27 05:09:51;;;;;;;7.13;4.97;;;15.90;99.90;;;;;;5052780;28;20021;-50
2023/08/27 05:12:17;;;;;;;9.00;4.22;;;15.90;99.90;;;;;;5051839;28;20021;-52
2023/08/27 05:14:43;;;;;;;8.88;4.78;;;15.90;99.90;;;;;;5052669;28;20367;-55
2023/08/27 05:17:08;;;;;;;8.18;4.53;;;15.90;99.90;;;;;;5050610;28;20032;-50
2023/08/27 05:19:34;;;;;;;8.02;4.78;;;15.90;99.90;;;;;;5051292;28;20147;-50
2023/08/27 05:22:00;;;;;;;10.75;5.80;;;16.00;99.90;;;;;;5051496;28;20095;-49
2023/08/27 05:24:26;;;;;;;8.45;5.38;;;16.00;99.90;;;;;;5052507;28;20090;-51
2023/08/27 05:26:52;;;;;;;7.72;4.35;;;16.00;99.90;;;;;;5049805;28;20104;-52
2023/08/27 05:29:17;;;;;;;7.90;4.65;;;16.00;99.90;;;;;;5049193;28;20025;-49
2023/08/27 05:31:43;;;;;;;6.10;3.40;;;16.00;99.90;;;;;;5051434;28;20032;-52
2023/08/27 05:34:09;;;;;;;7.65;4.35;;;16.00;99.90;;;;;;5053270;28;20021;-51
2023/08/27 05:36:34;;;;;;;5.50;4.05;;;16.00;99.90;;;;;;5053821;28;20029;-50
2023/08/27 05:39:00;;;;;;;5.60;4.22;;;16.00;99.90;;;;;;5053966;28;20028;-51
2023/08/27 05:41:26;;;;;;;6.18;4.00;;;16.00;99.90;;;;;;5052739;28;20032;-50
2023/08/27 05:43:52;;;;;;;6.93;4.25;;;16.10;99.90;;;;;;5056293;28;20044;-51
2023/08/27 05:46:18;;;;;;;7.38;3.67;;;16.10;99.90;;;;;;5054503;28;20041;-50
2023/08/27 05:48:43;;;;;;;6.47;4.03;;;16.10;99.90;;;;;;5037685;28;20022;-49
2023/08/27 05:51:09;;;;;;;6.40;4.22;;;16.10;99.90;;;;;;5055895;28;20079;-49
2023/08/27 05:53:34;;;;;;;4.75;4.10;;;16.10;99.90;;;;;;5054820;28;20021;-51
2023/08/27 05:56:00;;;;;;;4.68;3.75;;;16.00;99.90;;;;;;5056267;28;20021;-51
2023/08/27 05:58:26;;;;;;;7.00;3.97;;;16.10;99.90;;;;;;5055458;28;20111;-52
2023/08/27 06:00:53;;;;;;;6.00;3.58;;;16.10;99.90;;;;;;5054005;28;20028;-52
2023/08/27 06:03:20;;;;;;;7.95;4.32;;;16.00;99.90;;;;;;5051444;28;20482;-52
2023/08/27 06:05:45;;;;;;;6.88;4.03;;;16.00;99.90;;;;;;5055298;28;20481;-53
2023/08/27 06:08:11;;;;;;;4.30;3.90;;;16.00;99.90;;;;;;5055306;28;20079;-39
2023/08/27 06:10:37;;;;;;;10.13;3.92;;;15.90;99.90;;;;;;5055909;28;20092;-45
2023/08/27 06:13:03;;;;;;;5.57;3.40;;;15.90;99.90;;;;;;5055848;28;20040;-41
2023/08/27 06:15:29;;;;;;;4.00;3.25;;;15.90;99.90;;;;;;5055943;28;20021;-44
2023/08/27 06:17:55;;;;;;;6.47;3.13;;;16.00;99.90;;;;;;5054873;28;20478;-42
2023/08/27 06:20:21;;;;;;;6.45;3.97;;;16.00;99.90;;;;;;5056083;28;20017;-46
2023/08/27 06:22:48;;;;;;;7.22;3.80;;;16.00;99.90;;;;;;5053580;28;20021;-39
2023/08/27 06:25:13;;;;;;;5.63;3.28;;;16.00;99.90;;;;;;5055981;28;20033;-41
2023/08/27 06:27:39;;;;;;;4.57;3.55;;;16.00;99.90;;;;;;5051444;28;20022;-44
2023/08/27 06:30:05;;;;;;;4.40;3.50;;;16.10;99.90;;;;;;5055634;28;20055;-41
2023/08/27 06:32:31;;;;;;;6.25;3.85;;;16.10;99.90;;;;;;5055636;28;20075;-40
2023/08/27 06:34:57;;;;;;;5.55;3.50;;;16.20;99.90;;;;;;5055503;28;20083;-41
2023/08/27 06:37:22;;;;;;;6.75;4.00;;;16.30;99.90;;;;;;5054531;28;20401;-41
2023/08/27 06:39:49;;;;;;;5.63;3.25;;;16.30;99.90;;;;;;5054594;28;20049;-48
2023/08/27 06:42:15;;;;;;;5.78;4.18;;;16.30;99.90;;;;;;5055454;28;20033;-41
2023/08/27 06:44:41;;;;;;;8.88;3.65;;;16.30;99.90;;;;;;5049849;28;20520;-40
2023/08/27 06:47:06;;;;;;;9.57;3.67;;;16.40;99.90;;;;;;5049087;28;20025;-42
2023/08/27 06:49:32;;;;;;;6.32;4.75;;;16.40;99.90;;;;;;5052941;28;20013;-41
2023/08/27 06:51:58;;;;;;;4.32;3.70;;;16.50;99.90;;;;;;5047184;28;20025;-40
2023/08/27 06:54:23;;;;;;;7.10;4.07;;;16.70;99.90;;;;;;5048966;28;20036;-56
2023/08/27 06:56:49;;;;;;;8.82;4.75;;;16.80;99.90;;;;;;5049451;28;20025;-52
2023/08/27 06:59:15;;;;;;;6.18;3.97;;;16.80;99.90;;;;;;5047354;28;20446;-51
2023/08/27 07:01:40;;;;;;;6.00;4.28;;;16.90;99.90;;;;;;5054980;28;20033;-49
2023/08/27 07:04:07;;;;;;;5.75;4.25;;;16.90;99.90;;;;;;5055095;28;20061;-57
2023/08/27 07:06:33;;;;;;;9.48;4.65;;;16.90;99.90;;;;;;5055169;28;20021;-56
2023/08/27 07:08:59;;;;;;;6.50;4.73;;;17.00;99.90;;;;;;5055268;28;20052;-52
2023/08/27 07:11:25;;;;;;;8.80;4.45;;;17.00;99.90;;;;;;5046155;28;20060;-52
2023/08/27 07:13:51;;;;;;;13.68;4.72;;;17.00;99.90;;;;;;5040648;28;20017;-50
2023/08/27 07:16:17;;;;;;;7.82;4.68;;;17.10;99.90;;;;;;5055116;28;20029;-52
2023/08/27 07:18:43;;;;;;;6.18;4.45;;;17.20;99.90;;;;;;5054772;28;20040;-51
2023/08/27 07:21:09;;;;;;;13.90;4.25;;;17.30;99.90;;;;;;5054773;28;20021;-50
2023/08/27 07:23:35;;;;;;;6.03;4.22;;;17.30;99.90;;;;;;5054756;28;20393;-52
2023/08/27 07:26:01;;;;;;;17.58;4.47;;;17.40;99.90;;;;;;5054797;28;20389;-57
2023/08/27 07:28:26;;;;;;;8.80;4.47;;;17.40;99.90;;;;;;5052848;28;20113;-53
2023/08/27 07:30:52;;;;;;;10.63;5.45;;;17.40;99.90;;;;;;5053559;28;20021;-53
2023/08/27 07:33:18;;;;;;;10.85;5.88;;;17.50;99.90;;;;;;5054441;28;20032;-53
2023/08/27 07:35:43;;;;;;;12.43;6.05;;;17.50;99.90;;;;;;5054148;28;20079;-50
2023/08/27 07:38:09;;;;;;;9.63;6.07;;;17.50;99.90;;;;;;5054439;28;20469;-51
2023/08/27 07:40:36;;;;;;;9.02;5.97;;;17.40;99.90;;;;;;5054644;28;20025;-51
2023/08/27 07:43:03;;;;;;;11.32;6.78;;;17.40;99.90;;;;;;5054609;28;20017;-49
2023/08/27 07:45:29;;;;;;;6.95;5.78;;;17.30;99.90;;;;;;5053116;28;20037;-53
2023/08/27 07:47:54;;;;;;;9.45;6.75;;;17.30;99.90;;;;;;5052829;28;20052;-52
2023/08/27 07:50:20;;;;;;;9.07;6.03;;;17.20;99.90;;;;;;5050162;28;20493;-50
2023/08/27 07:52:45;;;;;;;11.00;7.15;;;17.10;99.90;;;;;;5040400;28;20026;-50
2023/08/27 07:55:11;;;;;;;11.68;6.22;;;17.20;99.90;;;;;;5053078;28;20055;-53
2023/08/27 07:57:37;;;;;;;13.15;7.00;;;17.40;99.90;;;;;;5051308;28;20033;-52
2023/08/27 08:00:03;;;;;;;11.35;6.60;;;17.60;99.90;;;;;;5053876;28;20545;-51
2023/08/27 08:02:29;;;;;;;14.65;6.80;;;17.80;99.90;;;;;;5052705;28;20025;-52
2023/08/27 08:04:54;;;;;;;10.02;4.93;;;18.10;99.90;;;;;;5053679;28;20099;-52
2023/08/27 08:07:20;;;;;;;15.52;5.95;;;18.10;99.90;;;;;;5053492;28;20112;-48
2023/08/27 08:09:46;;;;;;;9.25;5.35;;;18.30;99.90;;;;;;5053055;28;20104;-52
2023/08/27 08:12:12;;;;;;;9.82;4.70;;;18.40;99.90;;;;;;5052653;28;20025;-53
2023/08/27 08:14:38;;;;;;;7.53;5.18;;;18.60;99.90;;;;;;5053593;28;20021;-52
2023/08/27 08:17:04;;;;;;;6.00;4.35;;;18.50;99.90;;;;;;5052396;28;20539;-52
2023/08/27 08:19:30;;;;;;;5.88;4.35;;;18.50;99.90;;;;;;5037310;28;20037;-52
2023/08/27 08:21:55;;;;;;;11.32;4.28;;;18.40;99.90;;;;;;5037331;28;20021;-49
2023/08/27 08:24:21;;;;;;;7.43;4.57;;;18.30;99.90;;;;;;5053299;28;20409;-52
2023/08/27 08:26:49;;;;;;;6.35;4.15;;;18.20;99.90;;;;;;5052514;28;20029;-45
2023/08/27 08:29:15;;;;;;;3.80;3.50;;;18.20;99.90;;;;;;5053186;28;20025;-52
2023/08/27 08:31:40;;;;;;;3.95;3.45;;;18.30;99.90;;;;;;5053376;28;20040;-52
2023/08/27 08:34:06;;;;;;;6.10;3.40;;;18.40;99.90;;;;;;5073034;28;20492;-52
2023/08/27 08:36:33;;;;;;;9.25;4.03;;;18.50;99.90;;;;;;5054428;28;20037;-51
2023/08/27 08:38:58;;;;;;;7.57;4.05;;;18.70;99.90;;;;;;5053493;28;20051;-58
2023/08/27 08:41:27;;;;;;;7.80;4.15;;;18.70;99.90;;;;;;5053302;28;20040;-50
2023/08/27 08:44:01;;;;;;;10.60;4.13;;;18.70;99.90;;;;;;5049509;28;20127;-53
2023/08/27 08:46:34;;;;;;;4.68;3.80;;;18.60;99.90;;;;;;5049937;28;20095;-46
2023/08/27 08:49:02;;;;;;;10.93;4.05;;;18.50;99.90;;;;;;5051719;28;20378;-42
2023/08/27 08:51:28;;;;;;;4.95;3.38;;;18.50;99.90;;;;;;5048363;28;20033;-40
2023/08/27 08:53:59;;;;;;;3.85;2.88;;;18.30;99.90;;;;;;5052652;28;20078;-40
2023/08/27 08:56:28;;;;;;;6.18;2.78;;;18.20;99.90;;;;;;5048634;28;20032;-43
2023/08/27 08:58:58;;;;;;;3.65;2.50;;;18.10;99.90;;;;;;5051359;28;20037;-41
2023/08/27 09:01:28;;;;;;;4.18;3.17;;;18.00;99.90;;;;;;5052858;28;20539;-43
2023/08/27 09:03:55;;;;;;;9.55;4.97;;;17.90;99.90;;;;;;5032698;28;20111;-44
2023/08/27 09:06:21;;;;;;;3.75;3.42;;;17.80;99.90;;;;;;5050812;28;20035;-51
2023/08/27 09:08:48;;;;;;;4.27;3.13;;;17.70;99.90;;;;;;5051171;28;20054;-52
2023/08/27 09:11:16;;;;;;;4.10;3.25;;;17.60;99.90;;;;;;5049170;28;20763;-53
2023/08/27 09:13:41;;;;;;;6.68;3.85;;;17.60;99.90;;;;;;5044669;28;20025;-51
2023/08/27 09:16:08;;;;;;;5.05;3.42;;;17.50;99.90;;;;;;5047575;28;20025;-53
2023/08/27 09:18:34;;;;;;;3.22;2.83;;;17.50;99.90;;;;;;5052611;28;20470;-52
2023/08/27 09:21:00;;;;;;;4.72;3.60;;;17.60;99.90;;;;;;5052561;28;20081;-52
2023/08/27 09:23:27;;;;;;;5.30;3.53;;;17.60;99.90;;;;;;5042124;28;20111;-50
2023/08/27 09:25:56;;;;;;;10.93;4.22;;;17.50;99.90;;;;;;5042159;28;20087;-51
2023/08/27 09:28:22;;;;;;;5.85;3.08;;;17.60;99.90;;;;;;5038957;28;20025;-53
2023/08/27 09:30:48;;;;;;;2.90;2.53;;;17.60;99.90;;;;;;5052499;28;20024;-51
2023/08/27 09:33:13;;;;;;;3.35;3.10;;;17.70;99.90;;;;;;5052347;28;20087;-52
2023/08/27 09:35:40;;;;;;;5.20;2.75;;;18.00;99.90;;;;;;5052211;28;20025;-50
2023/08/27 09:38:10;;;;;;;4.07;3.05;;;18.40;99.90;;;;;;5052412;28;20035;-51
2023/08/27 09:40:36;;;;;;;4.82;2.80;;;18.70;99.90;;;;;;5052563;28;20029;-53
2023/08/27 09:43:11;;;;;;;4.05;2.38;;;19.10;99.90;;;;;;5050127;28;20021;-54
2023/08/27 09:45:38;;;;;;;3.78;2.33;;;19.50;99.90;;;;;;5052227;28;20139;-52
2023/08/27 09:48:04;;;;;;;2.60;1.70;;;19.80;99.90;;;;;;5051703;28;20453;-52
2023/08/27 09:50:31;;;;;;;3.92;1.83;;;20.00;99.90;;;;;;5052071;28;20112;-52
2023/08/27 09:53:12;;;;;;;3.33;1.13;;;20.20;99.90;;;;;;5052655;28;20021;-52
2023/08/27 09:55:39;;;;;;;1.15;0.80;;;20.00;99.90;;;;;;5052367;28;20104;-53
2023/08/27 09:58:05;;;;;;;0.50;0.50;;;19.80;99.90;;;;;;5051214;28;20403;-53
2023/08/27 10:00:32;;;;;;;0.35;0.25;;;19.50;99.90;;;;;;5049433;28;20036;-53
2023/08/27 10:02:57;;;;;;;0.20;0.20;;;19.20;99.90;;;;;;5049054;28;20033;-58
2023/08/27 10:05:32;;;;;;;1.13;0.50;;;19.00;99.90;;;;;;5033756;28;20543;-48
2023/08/27 10:07:59;;;;;;;0.35;0.35;;;18.80;99.90;;;;;;5045493;28;20041;-52
2023/08/27 10:10:27;;;;;;;0.40;0.40;;;18.60;99.90;;;;;;5044517;28;20461;-39
2023/08/27 10:12:54;;;;;;;0.17;0.17;;;18.50;99.90;;;;;;5048584;28;20017;-44
2023/08/27 10:15:21;;;;;;;0.30;0.30;;;18.40;99.90;;;;;;5042073;28;20076;-43
2023/08/27 10:17:47;;;;;;;0.70;0.50;;;18.30;99.90;;;;;;5024326;28;20040;-52
2023/08/27 10:20:13;;;;;;;0.22;0.22;;;18.20;99.90;;;;;;5053379;28;20370;-50
2023/08/27 10:22:41;;;;;;;0.40;0.40;;;18.00;99.90;;;;;;5053220;28;20033;-53
2023/08/27 10:25:07;;;;;;;1.55;0.70;;;17.90;99.90;;;;;;5037270;28;20028;-52
2023/08/27 10:27:33;;;;;;;1.02;0.43;;;17.80;99.90;;;;;;5053847;28;20021;-51
2023/08/27 10:30:01;;;;;;;0.40;0.35;;;17.80;99.90;;;;;;5055685;28;20032;-53
2023/08/27 10:32:27;;;;;;;;;;;17.70;99.90;;;;;;5056269;28;20389;-53
2023/08/27 10:34:52;;;;;;;0.38;0.38;;;17.50;99.90;;;;;;5053168;28;19912;-52
2023/08/27 10:37:20;;;;;;;1.33;0.40;;;17.40;99.90;;;;;;5048685;28;20103;-50
2023/08/27 10:39:48;;;;;;;3.60;0.38;;;17.30;99.90;;;;;;5054199;28;20584;-54
2023/08/27 10:42:33;;;;;;;0.70;0.20;;;17.30;99.90;;;;;;5050621;28;20028;-53
2023/08/27 10:45:20;;;;;;;1.38;0.50;;;17.20;99.90;;;;;;5051746;28;20162;-51
2023/08/27 10:48:04;;;;;;;2.33;0.40;;;17.10;99.90;;;;;;5053968;28;20039;-49
2023/08/27 10:50:46;;;;;;;0.38;0.30;;;17.10;99.90;;;;;;5054596;28;20486;-52
2023/08/27 10:53:13;;;;;;;0.50;0.50;;;16.90;99.90;;;;;;5049378;28;20029;-49
2023/08/27 10:55:43;;;;;;;0.60;0.20;;;16.90;99.90;;;;;;5052405;28;20017;-53
2023/08/27 10:58:23;;;;;;;0.65;0.40;;;16.80;99.90;;;;;;5049255;28;20117;-54
2023/08/27 11:01:03;;;;;;;0.55;0.40;;;16.80;99.90;;;;;;5035932;28;20485;-53
2023/08/27 11:04:06;;;;;;;4.13;0.70;;;16.80;99.90;;;;;;5052265;28;20075;-53
2023/08/27 11:06:46;;;;;;;0.60;0.60;;;16.80;99.90;;;;;;5050413;28;20393;-51
2023/08/27 11:09:23;;;;;;;1.13;0.55;;;16.80;99.90;;;;;;5054415;28;20025;-53
2023/08/27 11:11:54;;;;;;;1.85;0.60;;;16.80;99.90;;;;;;5050978;28;20104;-50
2023/08/27 11:14:22;;;;;;;0.82;0.80;;;16.80;99.90;;;;;;5035676;28;20021;-53
2023/08/27 11:16:54;;;;;;;2.25;1.23;;;16.80;99.90;;;;;;5036321;28;20060;-53
2023/08/27 11:19:30;;;;;;;0.90;0.90;;;16.90;99.90;;;;;;5053260;28;20033;-52
2023/08/27 11:22:19;;;;;;;2.95;1.42;;;17.10;99.90;;;;;;5051943;28;20034;-52
2023/08/27 11:24:49;;;;;;;4.35;0.70;;;17.40;99.90;;;;;;5036474;28;20382;-52
2023/08/27 11:27:17;;;;;;;1.08;1.02;;;17.60;99.90;;;;;;5053322;28;20094;-52
2023/08/27 11:29:48;;;;;;;1.08;0.90;;;17.60;99.90;;;;;;5052345;28;20033;-53
2023/08/27 11:32:14;;;;;;;6.22;0.77;;;17.60;99.90;;;;;;5054058;28;20441;-47
2023/08/27 11:34:45;;;;;;;0.90;0.90;;;17.60;99.90;;;;;;5036033;28;20021;-52
2023/08/27 11:37:11;;;;;;;3.17;1.02;;;17.50;99.90;;;;;;5053147;28;20482;-52
2023/08/27 11:39:38;;;;;;;2.17;0.80;;;17.50;99.90;;;;;;5049572;28;20033;-49
2023/08/27 11:42:11;;;;;;;0.70;0.70;;;17.60;99.90;;;;;;5052277;28;20029;-53
2023/08/27 11:44:45;;;;;;;1.00;0.80;;;17.50;99.90;;;;;;5046556;28;20047;-51
2023/08/27 11:47:11;;;;;;;2.38;0.90;;;17.60;99.90;;;;;;5052295;28;20037;-52
2023/08/27 11:49:36;;;;;;;1.48;1.38;;;17.60;99.90;;;;;;5052843;28;20028;-52
2023/08/27 11:52:03;;;;;;;1.23;0.88;;;17.60;99.90;;;;;;5052473;28;20028;-52
2023/08/27 11:54:30;;;;;;;3.63;0.80;;;17.70;99.90;;;;;;5034786;28;20021;-53
2023/08/27 11:56:57;;;;;;;1.73;0.73;;;17.80;99.90;;;;;;5053126;28;20086;-50
2023/08/27 11:59:26;;;;;;;0.82;0.80;;;17.90;99.90;;;;;;5050707;28;20021;-54
2023/08/27 12:01:53;;;;;;;0.88;0.85;;;18.00;99.90;;;;;;5052437;28;20115;-56
2023/08/27 12:04:18;;;;;;;6.22;0.80;;;18.10;99.90;;;;;;5050118;28;20496;-51
2023/08/27 12:06:56;;;;;;;1.05;0.93;;;18.20;99.90;;;;;;5052640;28;20116;-55
2023/08/27 12:09:27;;;;;;;0.90;0.90;;;18.30;99.90;;;;;;5052227;28;20049;-50
2023/08/27 12:11:53;;;;;;;0.98;0.70;;;18.50;99.90;;;;;;5053769;28;20501;-52
2023/08/27 12:14:25;;;;;;;4.07;1.05;;;18.70;99.90;;;;;;5052760;28;20092;-53
2023/08/27 12:16:51;;;;;;;1.63;0.90;;;18.90;99.90;;;;;;5052031;28;20032;-45
2023/08/27 12:19:22;;;;;;;2.63;0.70;;;19.00;99.90;;;;;;5033322;28;20017;-45
2023/08/27 12:21:56;;;;;;;0.70;0.65;;;19.00;99.90;;;;;;5053442;28;20040;-42
2023/08/27 12:24:42;;;;;;;0.88;0.70;;;19.20;99.90;;;;;;5033735;28;20028;-44
2023/08/27 12:27:09;;;;;;;1.02;0.80;;;19.30;99.90;;;;;;5052057;28;20036;-43
2023/08/27 12:29:41;;;;;;;1.33;0.70;;;19.50;99.90;;;;;;5047800;28;20053;-45
2023/08/27 12:32:11;;;;;;;1.98;0.80;;;19.70;99.90;;;;;;5053653;28;20025;-39
2023/08/27 12:34:38;;;;;;;1.27;0.80;;;20.00;99.90;;;;;;5042510;28;20432;-43
2023/08/27 12:37:05;;;;;;;2.30;0.90;;;20.20;99.90;;;;;;5051288;28;20078;-40
2023/08/27 12:39:31;;;;;;;0.70;0.70;;;20.20;99.90;;;;;;5052230;28;20530;-42
2023/08/27 12:41:58;;;;;;;1.63;1.17;;;19.90;99.90;;;;;;5050718;28;20021;-41
2023/08/27 12:44:24;;;;;;;2.03;0.85;;;19.80;99.90;;;;;;5032814;28;20503;-41
2023/08/27 12:46:52;;;;;;;2.72;1.23;;;19.90;99.90;;;;;;5051442;28;20033;-40